sensor_id;sensor_type;location;lat;lon;timestamp;pressure;altitude;pressure_sealevel;temperature;humidity
54022;BME280;39936;51.058;17.220;2022-07-03T00:01:15;102325.64;;;13.09;100.00
54022;BME280;39936;51.058;17.220;2022-07-03T00:05:24;102316.70;;;13.09;100.00
54022;BME280;39936;51.058;17.220;2022-07-03T00:08:54;102313.15;;;13.04;100.00
54022;BME280;39936;51.058;17.220;2022-07-03T00:12:26;102307.91;;;13.05;100.00
54022;BME280;39936;51.058;17.220;2022-07-03T00:15:59;102309.11;;;13.03;100.00
54022;BME280;39936;51.058;17.220;2022-07-03T00:19:13;102300.67;;;13.02;100.00
54022;BME280;39936;51.058;17.220;2022-07-03T00:22:57;102302.02;;;13.08;100.00
54022;BME280;39936;51.058;17.220;2022-07-03T00:26:53;102303.43;;;13.05;100.00
54022;BME280;39936;51.058;17.220;2022-07-03T00:30:52;102312.17;;;13.10;100.00
54022;BME280;39936;51.058;17.220;2022-07-03T00:34:08;102319.57;;;13.08;100.00
54022;BME280;39936;51.058;17.220;2022-07-03T00:37:52;102316.53;;;13.02;100.00
54022;BME280;39936;51.058;17.220;2022-07-03T00:45:00;102311.87;;;12.61;100.00
54022;BME280;39936;51.058;17.220;2022-07-03T00:48:11;102316.54;;;12.57;100.00
54022;BME280;39936;51.058;17.220;2022-07-03T00:52:16;102319.75;;;12.55;100.00
54022;BME280;39936;51.058;17.220;2022-07-03T00:55:47;102316.62;;;12.49;100.00
54022;BME280;39936;51.058;17.220;2022-07-03T00:59:32;102320.56;;;12.40;100.00
54022;BME280;39936;51.058;17.220;2022-07-03T01:03:16;102317.67;;;12.28;100.00
54022;BME280;39936;51.058;17.220;2022-07-03T01:07:51;102300.76;;;12.09;100.00
54022;BME280;39936;51.058;17.220;2022-07-03T01:15:43;102297.78;;;11.80;100.00
54022;BME280;39936;51.058;17.220;2022-07-03T01:18:54;102295.43;;;11.74;100.00
54022;BME280;39936;51.058;17.220;2022-07-03T01:22:44;102300.16;;;11.71;100.00
54022;BME280;39936;51.058;17.220;2022-07-03T01:26:24;102300.96;;;11.68;100.00
54022;BME280;39936;51.058;17.220;2022-07-03T01:30:09;102293.25;;;11.61;100.00
54022;BME280;39936;51.058;17.220;2022-07-03T01:33:40;102289.43;;;11.57;100.00
54022;BME280;39936;51.058;17.220;2022-07-03T01:36:50;102287.60;;;11.58;100.00
54022;BME280;39936;51.058;17.220;2022-07-03T01:41:12;102280.73;;;11.51;100.00
54022;BME280;39936;51.058;17.220;2022-07-03T01:45:07;102283.00;;;11.22;100.00
54022;BME280;39936;51.058;17.220;2022-07-03T01:49:13;102273.34;;;11.23;100.00
54022;BME280;39936;51.058;17.220;2022-07-03T01:52:48;102269.93;;;11.29;100.00
54022;BME280;39936;51.058;17.220;2022-07-03T01:57:05;102276.02;;;11.32;100.00
54022;BME280;39936;51.058;17.220;2022-07-03T02:11:53;102273.33;;;11.26;100.00
54022;BME280;39936;51.058;17.220;2022-07-03T02:16:09;102279.33;;;11.29;100.00
54022;BME280;39936;51.058;17.220;2022-07-03T02:20:14;102274.95;;;11.29;100.00
54022;BME280;39936;51.058;17.220;2022-07-03T02:23:55;102269.59;;;11.30;100.00
54022;BME280;39936;51.058;17.220;2022-07-03T02:27:54;102270.70;;;11.23;100.00
54022;BME280;39936;51.058;17.220;2022-07-03T02:38:56;102263.47;;;11.19;100.00
54022;BME280;39936;51.058;17.220;2022-07-03T02:53:41;102274.91;;;11.18;100.00
54022;BME280;39936;51.058;17.220;2022-07-03T03:00:14;102274.53;;;11.37;100.00
54022;BME280;39936;51.058;17.220;2022-07-03T03:08:43;102259.45;;;12.37;100.00
54022;BME280;39936;51.058;17.220;2022-07-03T03:12:00;102257.62;;;12.96;100.00
54022;BME280;39936;51.058;17.220;2022-07-03T03:15:31;102257.89;;;13.67;100.00
54022;BME280;39936;51.058;17.220;2022-07-03T03:19:13;102246.34;;;14.23;99.67
54022;BME280;39936;51.058;17.220;2022-07-03T03:26:54;102247.38;;;15.04;97.39
54022;BME280;39936;51.058;17.220;2022-07-03T03:30:12;102246.70;;;15.91;95.66
54022;BME280;39936;51.058;17.220;2022-07-03T03:33:29;102235.77;;;17.38;94.99
54022;BME280;39936;51.058;17.220;2022-07-03T03:36:40;102219.64;;;18.93;83.58
54022;BME280;39936;51.058;17.220;2022-07-03T03:39:57;102213.52;;;20.00;74.93
54022;BME280;39936;51.058;17.220;2022-07-03T03:43:07;102209.96;;;20.38;66.72
54022;BME280;39936;51.058;17.220;2022-07-03T03:46:22;102211.56;;;20.02;67.76
54022;BME280;39936;51.058;17.220;2022-07-03T03:49:58;102208.75;;;19.90;65.30
54022;BME280;39936;51.058;17.220;2022-07-03T03:53:32;102208.73;;;19.04;68.97
54022;BME280;39936;51.058;17.220;2022-07-03T03:56:45;102204.75;;;19.06;70.88
54022;BME280;39936;51.058;17.220;2022-07-03T04:00:15;102194.59;;;19.45;68.19
54022;BME280;39936;51.058;17.220;2022-07-03T04:03:27;102187.85;;;19.68;67.16
54022;BME280;39936;51.058;17.220;2022-07-03T04:07:08;102186.39;;;19.56;68.36
54022;BME280;39936;51.058;17.220;2022-07-03T04:10:20;102187.62;;;19.00;70.42
54022;BME280;39936;51.058;17.220;2022-07-03T04:13:31;102190.80;;;18.94;72.89
54022;BME280;39936;51.058;17.220;2022-07-03T04:18:01;102193.30;;;20.02;68.48
54022;BME280;39936;51.058;17.220;2022-07-03T04:21:53;102182.58;;;20.70;65.82
54022;BME280;39936;51.058;17.220;2022-07-03T04:25:21;102176.53;;;20.65;66.07
54022;BME280;39936;51.058;17.220;2022-07-03T04:28:52;102177.28;;;20.37;67.41
54022;BME280;39936;51.058;17.220;2022-07-03T04:32:04;102176.19;;;20.80;68.09
54022;BME280;39936;51.058;17.220;2022-07-03T04:35:37;102180.11;;;20.95;66.96
54022;BME280;39936;51.058;17.220;2022-07-03T04:38:45;102179.41;;;20.24;70.44
54022;BME280;39936;51.058;17.220;2022-07-03T04:41:53;102184.45;;;19.87;73.41
54022;BME280;39936;51.058;17.220;2022-07-03T04:45:25;102184.62;;;20.01;75.28
54022;BME280;39936;51.058;17.220;2022-07-03T04:48:40;102190.00;;;19.53;76.44
54022;BME280;39936;51.058;17.220;2022-07-03T04:52:43;102202.04;;;18.79;79.14
54022;BME280;39936;51.058;17.220;2022-07-03T04:56:25;102210.84;;;18.42;81.62
54022;BME280;39936;51.058;17.220;2022-07-03T05:00:07;102206.95;;;18.37;83.41
54022;BME280;39936;51.058;17.220;2022-07-03T05:03:24;102198.76;;;18.28;85.51
54022;BME280;39936;51.058;17.220;2022-07-03T05:06:35;102200.78;;;17.91;87.79
54022;BME280;39936;51.058;17.220;2022-07-03T05:10:14;102199.01;;;17.63;92.23
54022;BME280;39936;51.058;17.220;2022-07-03T05:13:42;102203.30;;;17.96;92.37
54022;BME280;39936;51.058;17.220;2022-07-03T05:17:00;102195.24;;;18.19;88.62
54022;BME280;39936;51.058;17.220;2022-07-03T05:20:39;102190.54;;;18.54;90.19
54022;BME280;39936;51.058;17.220;2022-07-03T05:23:55;102188.19;;;19.01;88.64
54022;BME280;39936;51.058;17.220;2022-07-03T05:28:00;102189.20;;;18.83;86.14
54022;BME280;39936;51.058;17.220;2022-07-03T05:31:55;102183.68;;;18.88;86.12
54022;BME280;39936;51.058;17.220;2022-07-03T05:36:06;102181.53;;;19.27;85.15
54022;BME280;39936;51.058;17.220;2022-07-03T05:39:30;102181.66;;;19.33;82.75
54022;BME280;39936;51.058;17.220;2022-07-03T05:42:47;102184.95;;;19.07;83.62
54022;BME280;39936;51.058;17.220;2022-07-03T05:46:41;102185.82;;;18.76;86.30
54022;BME280;39936;51.058;17.220;2022-07-03T05:49:55;102183.19;;;18.55;87.42
54022;BME280;39936;51.058;17.220;2022-07-03T05:53:31;102183.67;;;18.81;88.09
54022;BME280;39936;51.058;17.220;2022-07-03T05:57:03;102166.46;;;18.91;85.62
54022;BME280;39936;51.058;17.220;2022-07-03T06:00:34;102183.59;;;18.92;85.76
54022;BME280;39936;51.058;17.220;2022-07-03T06:04:57;102186.06;;;18.94;89.03
54022;BME280;39936;51.058;17.220;2022-07-03T06:08:37;102186.85;;;19.28;85.51
54022;BME280;39936;51.058;17.220;2022-07-03T06:13:47;102177.86;;;19.57;85.29
54022;BME280;39936;51.058;17.220;2022-07-03T06:17:44;102178.18;;;19.50;84.16
54022;BME280;39936;51.058;17.220;2022-07-03T06:20:53;102180.83;;;19.53;85.52
54022;BME280;39936;51.058;17.220;2022-07-03T06:24:25;102177.85;;;19.99;84.23
54022;BME280;39936;51.058;17.220;2022-07-03T06:27:40;102175.86;;;19.78;83.64
54022;BME280;39936;51.058;17.220;2022-07-03T06:32:00;102177.82;;;19.92;81.60
54022;BME280;39936;51.058;17.220;2022-07-03T06:35:21;102177.56;;;19.91;81.88
54022;BME280;39936;51.058;17.220;2022-07-03T06:39:33;102174.95;;;19.89;80.80
54022;BME280;39936;51.058;17.220;2022-07-03T06:43:24;102163.64;;;20.11;80.84
54022;BME280;39936;51.058;17.220;2022-07-03T06:46:49;102158.77;;;20.62;77.74
54022;BME280;39936;51.058;17.220;2022-07-03T06:50:34;102153.65;;;21.07;78.16
54022;BME280;39936;51.058;17.220;2022-07-03T06:54:15;102143.42;;;21.64;75.92
54022;BME280;39936;51.058;17.220;2022-07-03T06:57:34;102125.79;;;21.95;74.07
54022;BME280;39936;51.058;17.220;2022-07-03T07:00:46;102149.81;;;21.65;70.95
54022;BME280;39936;51.058;17.220;2022-07-03T07:04:01;102151.34;;;21.50;71.81
54022;BME280;39936;51.058;17.220;2022-07-03T07:07:33;102145.83;;;21.62;72.88
54022;BME280;39936;51.058;17.220;2022-07-03T07:10:57;102149.87;;;21.45;70.71
54022;BME280;39936;51.058;17.220;2022-07-03T07:14:16;102138.23;;;21.45;73.35
54022;BME280;39936;51.058;17.220;2022-07-03T07:17:28;102135.91;;;21.78;68.29
54022;BME280;39936;51.058;17.220;2022-07-03T07:20:48;102128.38;;;21.63;69.74
54022;BME280;39936;51.058;17.220;2022-07-03T07:23:56;102113.69;;;22.17;72.03
54022;BME280;39936;51.058;17.220;2022-07-03T07:27:26;102110.02;;;22.34;68.76
54022;BME280;39936;51.058;17.220;2022-07-03T07:31:06;102110.41;;;22.27;66.17
54022;BME280;39936;51.058;17.220;2022-07-03T07:34:46;102110.59;;;22.42;65.24
54022;BME280;39936;51.058;17.220;2022-07-03T07:38:07;102106.40;;;22.38;64.54
54022;BME280;39936;51.058;17.220;2022-07-03T07:41:47;102103.37;;;22.49;66.13
54022;BME280;39936;51.058;17.220;2022-07-03T07:45:47;102098.94;;;22.66;66.78
54022;BME280;39936;51.058;17.220;2022-07-03T07:49:49;102094.54;;;23.00;65.72
54022;BME280;39936;51.058;17.220;2022-07-03T07:53:32;102087.41;;;23.40;62.88
54022;BME280;39936;51.058;17.220;2022-07-03T07:57:00;102086.55;;;23.76;62.46
54022;BME280;39936;51.058;17.220;2022-07-03T08:00:23;102082.05;;;24.13;61.41
54022;BME280;39936;51.058;17.220;2022-07-03T08:03:46;102081.84;;;24.04;53.58
54022;BME280;39936;51.058;17.220;2022-07-03T08:07:28;102090.13;;;22.95;54.00
54022;BME280;39936;51.058;17.220;2022-07-03T08:10:50;102093.17;;;22.80;60.29
54022;BME280;39936;51.058;17.220;2022-07-03T08:14:43;102085.05;;;23.34;61.03
54022;BME280;39936;51.058;17.220;2022-07-03T08:18:22;102084.30;;;23.59;60.50
54022;BME280;39936;51.058;17.220;2022-07-03T08:22:18;102077.73;;;23.68;58.24
54022;BME280;39936;51.058;17.220;2022-07-03T08:25:30;102083.21;;;23.57;57.82
54022;BME280;39936;51.058;17.220;2022-07-03T08:28:40;102084.01;;;23.67;56.20
54022;BME280;39936;51.058;17.220;2022-07-03T08:32:24;102088.84;;;23.44;58.48
54022;BME280;39936;51.058;17.220;2022-07-03T08:37:45;102082.21;;;23.27;57.04
54022;BME280;39936;51.058;17.220;2022-07-03T08:41:12;102076.09;;;23.55;61.19
54022;BME280;39936;51.058;17.220;2022-07-03T08:44:29;102072.24;;;24.01;57.63
54022;BME280;39936;51.058;17.220;2022-07-03T08:48:51;102066.80;;;24.49;55.62
54022;BME280;39936;51.058;17.220;2022-07-03T08:52:03;102072.05;;;24.09;56.93
54022;BME280;39936;51.058;17.220;2022-07-03T08:55:50;102066.48;;;24.49;53.85
54022;BME280;39936;51.058;17.220;2022-07-03T08:59:17;102059.99;;;24.26;55.94
54022;BME280;39936;51.058;17.220;2022-07-03T09:03:17;102060.02;;;24.20;53.69
54022;BME280;39936;51.058;17.220;2022-07-03T09:06:31;102049.52;;;24.44;54.35
54022;BME280;39936;51.058;17.220;2022-07-03T09:10:17;102043.05;;;24.49;52.69
54022;BME280;39936;51.058;17.220;2022-07-03T09:13:56;102046.27;;;24.83;50.08
54022;BME280;39936;51.058;17.220;2022-07-03T09:17:11;102045.77;;;24.61;52.59
54022;BME280;39936;51.058;17.220;2022-07-03T09:20:41;102045.73;;;24.70;51.77
54022;BME280;39936;51.058;17.220;2022-07-03T09:24:12;102034.41;;;24.76;52.60
54022;BME280;39936;51.058;17.220;2022-07-03T09:27:24;102028.36;;;24.89;52.90
54022;BME280;39936;51.058;17.220;2022-07-03T09:30:32;102019.38;;;24.83;50.09
54022;BME280;39936;51.058;17.220;2022-07-03T09:34:03;102018.33;;;25.08;54.06
54022;BME280;39936;51.058;17.220;2022-07-03T09:37:24;102028.48;;;24.97;49.84
54022;BME280;39936;51.058;17.220;2022-07-03T09:41:14;102016.48;;;25.31;53.46
54022;BME280;39936;51.058;17.220;2022-07-03T09:44:58;102006.23;;;25.92;50.92
54022;BME280;39936;51.058;17.220;2022-07-03T09:48:41;102004.96;;;25.83;47.85
54022;BME280;39936;51.058;17.220;2022-07-03T09:52:03;101997.77;;;25.75;49.42
54022;BME280;39936;51.058;17.220;2022-07-03T09:55:34;102009.81;;;24.75;47.67
54022;BME280;39936;51.058;17.220;2022-07-03T09:59:23;102004.62;;;25.20;52.00
54022;BME280;39936;51.058;17.220;2022-07-03T10:03:10;101983.48;;;25.65;48.85
54022;BME280;39936;51.058;17.220;2022-07-03T10:07:12;101992.89;;;25.15;46.76
54022;BME280;39936;51.058;17.220;2022-07-03T10:10:51;101985.97;;;25.03;49.63
54022;BME280;39936;51.058;17.220;2022-07-03T10:14:08;101992.18;;;25.19;51.03
54022;BME280;39936;51.058;17.220;2022-07-03T10:17:52;101978.70;;;25.53;51.85
54022;BME280;39936;51.058;17.220;2022-07-03T10:21:21;101989.88;;;25.25;51.88
54022;BME280;39936;51.058;17.220;2022-07-03T10:24:43;101977.35;;;25.54;51.53
54022;BME280;39936;51.058;17.220;2022-07-03T10:28:32;101974.94;;;26.09;49.00
54022;BME280;39936;51.058;17.220;2022-07-03T10:32:13;101966.84;;;25.68;48.45
54022;BME280;39936;51.058;17.220;2022-07-03T10:35:45;101961.38;;;25.53;45.67
54022;BME280;39936;51.058;17.220;2022-07-03T10:39:13;101952.86;;;25.73;44.97
54022;BME280;39936;51.058;17.220;2022-07-03T10:42:52;101949.04;;;25.46;44.13
54022;BME280;39936;51.058;17.220;2022-07-03T10:46:22;101950.70;;;24.76;45.65
54022;BME280;39936;51.058;17.220;2022-07-03T10:49:31;101952.31;;;24.99;47.32
54022;BME280;39936;51.058;17.220;2022-07-03T10:53:23;101940.42;;;25.29;51.23
54022;BME280;39936;51.058;17.220;2022-07-03T11:01:01;101937.17;;;25.56;47.83
54022;BME280;39936;51.058;17.220;2022-07-03T11:09:04;101931.71;;;25.07;44.42
54022;BME280;39936;51.058;17.220;2022-07-03T11:15:52;101926.34;;;24.99;46.12
54022;BME280;39936;51.058;17.220;2022-07-03T11:19:00;101905.09;;;25.24;49.13
54022;BME280;39936;51.058;17.220;2022-07-03T11:22:26;101914.80;;;25.26;46.38
54022;BME280;39936;51.058;17.220;2022-07-03T11:26:26;101905.13;;;25.35;45.95
54022;BME280;39936;51.058;17.220;2022-07-03T11:30:04;101906.50;;;25.50;49.54
54022;BME280;39936;51.058;17.220;2022-07-03T11:33:45;101892.53;;;25.81;49.37
54022;BME280;39936;51.058;17.220;2022-07-03T11:37:41;101892.23;;;26.17;47.32
54022;BME280;39936;51.058;17.220;2022-07-03T11:41:18;101893.45;;;26.59;45.43
54022;BME280;39936;51.058;17.220;2022-07-03T11:44:47;101899.28;;;26.22;44.01
54022;BME280;39936;51.058;17.220;2022-07-03T11:48:21;101895.34;;;26.18;42.79
54022;BME280;39936;51.058;17.220;2022-07-03T11:52:30;101896.50;;;26.22;47.51
54022;BME280;39936;51.058;17.220;2022-07-03T11:57:48;101891.34;;;26.40;44.95
54022;BME280;39936;51.058;17.220;2022-07-03T12:01:37;101884.48;;;26.74;43.29
54022;BME280;39936;51.058;17.220;2022-07-03T12:05:18;101869.51;;;26.96;40.42
54022;BME280;39936;51.058;17.220;2022-07-03T12:08:41;101865.78;;;27.02;40.56
54022;BME280;39936;51.058;17.220;2022-07-03T12:12:04;101861.22;;;27.00;41.42
54022;BME280;39936;51.058;17.220;2022-07-03T12:15:19;101870.98;;;25.47;42.10
54022;BME280;39936;51.058;17.220;2022-07-03T12:21:58;101857.41;;;25.31;42.18
54022;BME280;39936;51.058;17.220;2022-07-03T12:26:10;101852.23;;;25.10;44.34
54022;BME280;39936;51.058;17.220;2022-07-03T12:30:23;101833.29;;;25.25;44.42
54022;BME280;39936;51.058;17.220;2022-07-03T12:34:38;101852.47;;;25.31;43.89
54022;BME280;39936;51.058;17.220;2022-07-03T12:38:09;101851.15;;;25.19;44.86
54022;BME280;39936;51.058;17.220;2022-07-03T12:43:51;101843.50;;;25.01;45.00
54022;BME280;39936;51.058;17.220;2022-07-03T12:47:34;101843.81;;;25.50;42.74
54022;BME280;39936;51.058;17.220;2022-07-03T12:50:51;101844.81;;;25.55;43.98
54022;BME280;39936;51.058;17.220;2022-07-03T12:54:56;101844.57;;;25.81;43.50
54022;BME280;39936;51.058;17.220;2022-07-03T12:59:26;101844.36;;;25.94;44.69
54022;BME280;39936;51.058;17.220;2022-07-03T13:02:52;101846.52;;;25.74;41.73
54022;BME280;39936;51.058;17.220;2022-07-03T13:06:37;101844.04;;;25.82;43.32
54022;BME280;39936;51.058;17.220;2022-07-03T13:10:12;101841.73;;;25.53;44.40
54022;BME280;39936;51.058;17.220;2022-07-03T13:14:00;101835.02;;;25.69;43.38
54022;BME280;39936;51.058;17.220;2022-07-03T13:21:20;101813.99;;;26.20;43.33
54022;BME280;39936;51.058;17.220;2022-07-03T13:24:42;101807.48;;;25.94;43.23
54022;BME280;39936;51.058;17.220;2022-07-03T13:35:12;101802.53;;;26.21;43.52
54022;BME280;39936;51.058;17.220;2022-07-03T13:38:45;101791.77;;;26.77;42.21
54022;BME280;39936;51.058;17.220;2022-07-03T13:42:18;101793.64;;;26.93;41.16
54022;BME280;39936;51.058;17.220;2022-07-03T13:46:52;101788.55;;;26.70;41.19
54022;BME280;39936;51.058;17.220;2022-07-03T13:51:49;101793.81;;;26.37;41.12
54022;BME280;39936;51.058;17.220;2022-07-03T13:55:23;101791.96;;;26.22;41.71
54022;BME280;39936;51.058;17.220;2022-07-03T14:00:19;101789.47;;;26.47;42.74
54022;BME280;39936;51.058;17.220;2022-07-03T14:04:01;101780.39;;;27.15;42.66
54022;BME280;39936;51.058;17.220;2022-07-03T14:07:34;101777.59;;;27.37;41.66
54022;BME280;39936;51.058;17.220;2022-07-03T14:22:37;101766.81;;;27.20;38.24
54022;BME280;39936;51.058;17.220;2022-07-03T14:39:58;101740.30;;;26.53;40.69
54022;BME280;39936;51.058;17.220;2022-07-03T14:54:31;101721.80;;;27.59;39.43
54022;BME280;39936;51.058;17.220;2022-07-03T15:14:11;101730.95;;;27.32;38.63
54022;BME280;39936;51.058;17.220;2022-07-03T15:23:16;101723.03;;;27.35;38.58
54022;BME280;39936;51.058;17.220;2022-07-03T15:27:15;101727.23;;;26.74;39.56
54022;BME280;39936;51.058;17.220;2022-07-03T15:31:22;101723.09;;;27.00;39.77
54022;BME280;39936;51.058;17.220;2022-07-03T15:35:10;101714.80;;;27.61;39.29
54022;BME280;39936;51.058;17.220;2022-07-03T16:19:19;101661.88;;;29.46;35.85
54022;BME280;39936;51.058;17.220;2022-07-03T16:23:06;101663.05;;;29.36;36.16
54022;BME280;39936;51.058;17.220;2022-07-03T16:27:18;101665.21;;;29.54;35.95
54022;BME280;39936;51.058;17.220;2022-07-03T16:37:06;101663.88;;;29.22;35.65
54022;BME280;39936;51.058;17.220;2022-07-03T16:42:42;101657.73;;;28.93;35.13
54022;BME280;39936;51.058;17.220;2022-07-03T16:57:29;101672.71;;;27.89;37.74
54022;BME280;39936;51.058;17.220;2022-07-03T17:01:13;101674.80;;;27.85;37.87
54022;BME280;39936;51.058;17.220;2022-07-03T17:05:16;101663.82;;;27.95;38.38
54022;BME280;39936;51.058;17.220;2022-07-03T17:09:34;101674.61;;;27.72;38.48
54022;BME280;39936;51.058;17.220;2022-07-03T17:13:20;101676.18;;;27.65;39.60
54022;BME280;39936;51.058;17.220;2022-07-03T17:17:23;101671.27;;;27.87;39.08
54022;BME280;39936;51.058;17.220;2022-07-03T17:21:22;101667.37;;;28.05;38.66
54022;BME280;39936;51.058;17.220;2022-07-03T17:25:03;101665.08;;;27.95;38.17
54022;BME280;39936;51.058;17.220;2022-07-03T17:33:33;101660.91;;;28.19;38.98
54022;BME280;39936;51.058;17.220;2022-07-03T17:37:57;101664.98;;;28.10;39.29
54022;BME280;39936;51.058;17.220;2022-07-03T17:41:37;101662.35;;;28.31;38.62
54022;BME280;39936;51.058;17.220;2022-07-03T17:44:42;101659.54;;;28.66;38.16
54022;BME280;39936;51.058;17.220;2022-07-03T17:48:07;101664.41;;;29.02;37.23
54022;BME280;39936;51.058;17.220;2022-07-03T17:51:17;101644.82;;;29.23;36.50
54022;BME280;39936;51.058;17.220;2022-07-03T17:54:59;101657.45;;;29.88;36.04
54022;BME280;39936;51.058;17.220;2022-07-03T17:58:52;101653.94;;;30.48;34.85
54022;BME280;39936;51.058;17.220;2022-07-03T18:02:31;101654.20;;;30.50;34.79
54022;BME280;39936;51.058;17.220;2022-07-03T18:05:49;101657.34;;;30.49;34.68
54022;BME280;39936;51.058;17.220;2022-07-03T18:09:26;101650.48;;;30.52;35.01
54022;BME280;39936;51.058;17.220;2022-07-03T18:16:34;101649.53;;;30.37;34.62
54022;BME280;39936;51.058;17.220;2022-07-03T18:19:47;101651.09;;;30.21;34.90
54022;BME280;39936;51.058;17.220;2022-07-03T18:22:59;101650.83;;;30.27;35.90
54022;BME280;39936;51.058;17.220;2022-07-03T18:26:28;101649.30;;;30.69;35.37
54022;BME280;39936;51.058;17.220;2022-07-03T18:29:41;101651.65;;;30.98;34.13
54022;BME280;39936;51.058;17.220;2022-07-03T18:33:13;101652.46;;;30.86;34.04
54022;BME280;39936;51.058;17.220;2022-07-03T18:37:13;101661.78;;;29.79;35.08
54022;BME280;39936;51.058;17.220;2022-07-03T18:40:22;101665.41;;;28.75;35.89
54022;BME280;39936;51.058;17.220;2022-07-03T18:43:37;101667.99;;;27.95;36.83
54022;BME280;39936;51.058;17.220;2022-07-03T18:47:06;101674.09;;;27.70;37.12
54022;BME280;39936;51.058;17.220;2022-07-03T18:50:33;101673.34;;;27.72;38.33
54022;BME280;39936;51.058;17.220;2022-07-03T18:54:27;101673.96;;;27.70;41.83
54022;BME280;39936;51.058;17.220;2022-07-03T19:02:08;101679.95;;;26.83;42.54
54022;BME280;39936;51.058;17.220;2022-07-03T19:05:58;101683.44;;;26.42;43.27
54022;BME280;39936;51.058;17.220;2022-07-03T19:09:07;101687.88;;;25.94;44.05
54022;BME280;39936;51.058;17.220;2022-07-03T19:16:05;101715.16;;;23.12;54.79
54022;BME280;39936;51.058;17.220;2022-07-03T19:19:22;101720.12;;;22.68;56.13
54022;BME280;39936;51.058;17.220;2022-07-03T19:23:07;101720.92;;;22.34;58.16
54022;BME280;39936;51.058;17.220;2022-07-03T19:30:46;101726.47;;;21.87;57.37
54022;BME280;39936;51.058;17.220;2022-07-03T19:34:40;101734.16;;;21.73;59.19
54022;BME280;39936;51.058;17.220;2022-07-03T19:37:49;101730.51;;;21.69;60.70
54022;BME280;39936;51.058;17.220;2022-07-03T19:41:27;101734.54;;;21.46;61.41
54022;BME280;39936;51.058;17.220;2022-07-03T19:45:22;101736.16;;;21.23;61.29
54022;BME280;39936;51.058;17.220;2022-07-03T19:49:28;101743.17;;;21.01;64.29
54022;BME280;39936;51.058;17.220;2022-07-03T19:56:38;101745.07;;;20.59;64.81
54022;BME280;39936;51.058;17.220;2022-07-03T20:00:16;101745.45;;;20.43;66.52
54022;BME280;39936;51.058;17.220;2022-07-03T20:03:57;101749.31;;;20.26;69.65
54022;BME280;39936;51.058;17.220;2022-07-03T20:07:39;101749.52;;;19.85;70.94
54022;BME280;39936;51.058;17.220;2022-07-03T20:11:20;101754.95;;;19.58;71.39
54022;BME280;39936;51.058;17.220;2022-07-03T20:15:13;101757.12;;;19.42;71.14
54022;BME280;39936;51.058;17.220;2022-07-03T20:18:51;101754.73;;;19.35;72.32
54022;BME280;39936;51.058;17.220;2022-07-03T20:22:00;101759.20;;;19.26;71.30
54022;BME280;39936;51.058;17.220;2022-07-03T20:25:31;101750.33;;;19.14;70.92
54022;BME280;39936;51.058;17.220;2022-07-03T20:28:47;101755.02;;;19.11;72.14
54022;BME280;39936;51.058;17.220;2022-07-03T20:32:20;101758.63;;;19.04;72.19
54022;BME280;39936;51.058;17.220;2022-07-03T20:35:34;101767.59;;;18.98;74.20
54022;BME280;39936;51.058;17.220;2022-07-03T20:38:45;101762.48;;;18.89;75.16
54022;BME280;39936;51.058;17.220;2022-07-03T20:41:54;101767.38;;;18.67;79.24
54022;BME280;39936;51.058;17.220;2022-07-03T20:45:32;101765.01;;;18.48;79.94
54022;BME280;39936;51.058;17.220;2022-07-03T20:48:52;101762.73;;;18.33;80.53
54022;BME280;39936;51.058;17.220;2022-07-03T20:52:25;101762.49;;;18.34;79.09
54022;BME280;39936;51.058;17.220;2022-07-03T20:55:46;101762.64;;;18.33;78.53
54022;BME280;39936;51.058;17.220;2022-07-03T20:58:59;101765.33;;;18.26;78.11
54022;BME280;39936;51.058;17.220;2022-07-03T21:02:54;101764.63;;;18.19;81.70
54022;BME280;39936;51.058;17.220;2022-07-03T21:06:36;101766.04;;;18.02;86.54
54022;BME280;39936;51.058;17.220;2022-07-03T21:10:02;101769.48;;;17.95;84.58
54022;BME280;39936;51.058;17.220;2022-07-03T21:13:12;101766.45;;;17.95;82.66
54022;BME280;39936;51.058;17.220;2022-07-03T21:16:52;101770.20;;;17.93;81.37
54022;BME280;39936;51.058;17.220;2022-07-03T21:20:26;101771.66;;;17.89;81.45
54022;BME280;39936;51.058;17.220;2022-07-03T21:24:10;101764.58;;;17.82;81.89
54022;BME280;39936;51.058;17.220;2022-07-03T21:27:55;101766.38;;;17.69;84.12
54022;BME280;39936;51.058;17.220;2022-07-03T21:32:09;101765.84;;;17.53;86.50
54022;BME280;39936;51.058;17.220;2022-07-03T21:35:18;101763.68;;;17.23;89.53
54022;BME280;39936;51.058;17.220;2022-07-03T21:38:59;101759.90;;;17.09;91.11
54022;BME280;39936;51.058;17.220;2022-07-03T21:42:43;101763.27;;;16.94;89.37
54022;BME280;39936;51.058;17.220;2022-07-03T21:46:29;101762.91;;;16.80;88.91
54022;BME280;39936;51.058;17.220;2022-07-03T21:50:37;101763.61;;;16.83;88.28
54022;BME280;39936;51.058;17.220;2022-07-03T21:54:08;101758.93;;;16.87;87.50
54022;BME280;39936;51.058;17.220;2022-07-03T21:57:50;101761.55;;;16.91;87.22
54022;BME280;39936;51.058;17.220;2022-07-03T22:02:13;101759.98;;;16.90;86.40
54022;BME280;39936;51.058;17.220;2022-07-03T22:06:27;101758.31;;;16.86;86.36
54022;BME280;39936;51.058;17.220;2022-07-03T22:09:45;101764.92;;;16.70;88.23
54022;BME280;39936;51.058;17.220;2022-07-03T22:12:53;101765.80;;;16.56;90.88
54022;BME280;39936;51.058;17.220;2022-07-03T22:16:32;101760.60;;;16.35;96.26
54022;BME280;39936;51.058;17.220;2022-07-03T22:19:42;101753.59;;;16.28;97.06